createdAt,value
2023-03-05T00:01:33.718Z,12.07
2023-03-05T00:04:02.485Z,10.50
2023-03-05T00:06:31.480Z,15.68
2023-03-05T00:08:59.172Z,10.85
2023-03-05T00:11:30.090Z,9.52
2023-03-05T00:13:58.716Z,8.68
2023-03-05T00:16:27.315Z,11.18
2023-03-05T00:18:56.592Z,10.05
2023-03-05T00:21:39.325Z,6.30
2023-03-05T00:24:11.128Z,9.98
2023-03-05T00:26:39.273Z,6.55
2023-03-05T00:29:08.431Z,8.75
2023-03-05T00:31:36.776Z,8.05
2023-03-05T00:34:13.594Z,8.55
2023-03-05T00:36:43.097Z,6.28
2023-03-05T00:39:11.984Z,9.02
2023-03-05T00:41:39.563Z,8.30
2023-03-05T00:44:07.279Z,8.73
2023-03-05T00:46:34.782Z,7.25
2023-03-05T00:49:02.320Z,7.38
2023-03-05T00:51:29.643Z,5.50
2023-03-05T00:53:56.916Z,5.32
2023-03-05T00:56:24.399Z,8.63
2023-03-05T00:58:53.381Z,5.47
2023-03-05T01:01:20.815Z,9.00
2023-03-05T01:03:48.181Z,6.20
2023-03-05T01:06:17.250Z,6.30
2023-03-05T01:08:45.671Z,6.32
2023-03-05T01:11:14.414Z,8.00
2023-03-05T01:13:41.924Z,6.82
2023-03-05T01:16:09.742Z,4.88
2023-03-05T01:18:38.277Z,8.70
2023-03-05T01:21:07.710Z,8.18
2023-03-05T01:23:37.477Z,12.23
2023-03-05T01:26:05.995Z,16.60
2023-03-05T01:28:33.277Z,9.32
2023-03-05T01:31:00.545Z,6.25
2023-03-05T01:33:27.795Z,8.45
2023-03-05T01:35:55.035Z,7.25
2023-03-05T01:38:22.412Z,6.22
2023-03-05T01:40:49.870Z,9.57
2023-03-05T01:43:30.507Z,6.35
2023-03-05T01:46:16.951Z,7.38
2023-03-05T01:48:49.699Z,6.78
2023-03-05T01:51:20.526Z,6.03
2023-03-05T01:53:48.061Z,7.60
2023-03-05T01:56:15.879Z,7.88
2023-03-05T01:58:44.264Z,4.13
2023-03-05T02:01:11.715Z,9.23
2023-03-05T02:03:40.310Z,8.85
2023-03-05T02:06:07.884Z,7.90
2023-03-05T02:08:35.110Z,7.68
2023-03-05T02:11:02.548Z,6.70
2023-03-05T02:13:33.065Z,7.53
2023-03-05T02:16:02.130Z,10.82
2023-03-05T02:18:29.361Z,4.65
2023-03-05T02:20:56.709Z,5.10
2023-03-05T02:23:30.594Z,5.15
2023-03-05T02:25:57.935Z,9.80
2023-03-05T02:28:34.766Z,7.85
2023-03-05T02:31:02.230Z,8.57
2023-03-05T02:33:29.717Z,8.50
2023-03-05T02:35:57.010Z,6.40
2023-03-05T02:38:24.374Z,5.90
2023-03-05T02:40:52.794Z,9.10
2023-03-05T02:43:20.065Z,6.88
2023-03-05T02:45:47.441Z,7.15
2023-03-05T02:48:14.956Z,7.32
2023-03-05T02:50:43.066Z,10.20
2023-03-05T02:53:10.498Z,9.68
2023-03-05T02:55:38.998Z,12.98
2023-03-05T02:58:06.486Z,12.15
2023-03-05T03:00:33.902Z,14.05
2023-03-05T03:03:01.319Z,13.20
2023-03-05T03:05:28.653Z,16.27
2023-03-05T03:07:56.039Z,8.57
2023-03-05T03:10:23.581Z,6.13
2023-03-05T03:12:50.859Z,9.85
2023-03-05T03:15:18.844Z,8.68
2023-03-05T03:17:46.616Z,12.05
2023-03-05T03:20:17.258Z,15.18
2023-03-05T03:22:46.451Z,14.35
2023-03-05T03:25:19.735Z,14.50
2023-03-05T03:27:47.143Z,21.63
2023-03-05T03:30:15.469Z,13.73
2023-03-05T03:32:43.001Z,18.48
2023-03-05T03:35:11.795Z,13.43
2023-03-05T03:37:39.424Z,11.60
2023-03-05T03:40:07.816Z,13.88
2023-03-05T03:42:35.295Z,9.98
2023-03-05T03:45:03.118Z,10.52
2023-03-05T03:47:31.362Z,9.82
2023-03-05T03:50:01.614Z,9.85
2023-03-05T03:52:28.794Z,7.70
2023-03-05T03:55:01.716Z,10.95
2023-03-05T03:57:31.074Z,9.43
2023-03-05T03:59:58.558Z,10.85
2023-03-05T04:02:26.541Z,9.88
2023-03-05T04:04:54.036Z,9.73
2023-03-05T04:07:21.396Z,7.03
2023-03-05T04:09:48.733Z,12.25
2023-03-05T04:12:18.424Z,10.52
2023-03-05T04:14:49.197Z,12.63
2023-03-05T04:17:17.104Z,12.63
2023-03-05T04:19:44.661Z,14.43
2023-03-05T04:22:13.976Z,11.70
2023-03-05T04:24:41.618Z,19.67
2023-03-05T04:27:09.253Z,10.38
2023-03-05T04:29:36.590Z,13.38
2023-03-05T04:32:04.402Z,11.13
2023-03-05T04:34:33.005Z,10.25
2023-03-05T04:37:00.444Z,11.27
2023-03-05T04:39:27.787Z,10.35
2023-03-05T04:41:55.095Z,11.20
2023-03-05T04:44:23.448Z,15.30
2023-03-05T04:46:50.790Z,8.18
2023-03-05T04:49:18.072Z,11.35
2023-03-05T04:51:45.296Z,11.80
2023-03-05T04:54:12.579Z,9.73
2023-03-05T04:56:39.909Z,9.75
2023-03-05T04:59:07.467Z,11.45
2023-03-05T05:01:35.657Z,8.50
2023-03-05T05:04:03.393Z,16.80
2023-03-05T05:06:30.726Z,18.40
2023-03-05T05:08:58.114Z,13.13
2023-03-05T05:11:25.408Z,12.73
2023-03-05T05:13:52.787Z,12.30
2023-03-05T05:16:20.391Z,10.55
2023-03-05T05:18:47.970Z,14.23
2023-03-05T05:21:15.750Z,17.00
2023-03-05T05:23:43.303Z,12.52
2023-03-05T05:26:14.453Z,15.00
2023-03-05T05:28:43.674Z,20.27
2023-03-05T05:31:14.583Z,14.02
2023-03-05T05:33:42.336Z,18.23
2023-03-05T05:36:13.218Z,13.60
2023-03-05T05:38:40.818Z,21.05
2023-03-05T05:41:11.882Z,15.73
2023-03-05T05:43:39.392Z,12.63
2023-03-05T05:46:10.832Z,10.57
2023-03-05T05:48:38.342Z,18.00
2023-03-05T05:51:11.725Z,11.07
2023-03-05T05:53:39.699Z,11.88
2023-03-05T05:56:09.444Z,11.43
2023-03-05T05:58:38.391Z,17.48
2023-03-05T06:01:18.501Z,15.40
2023-03-05T06:03:46.850Z,20.42
2023-03-05T06:06:16.858Z,15.50
2023-03-05T06:08:44.533Z,15.32
2023-03-05T06:11:12.735Z,15.60
2023-03-05T06:13:40.487Z,17.27
2023-03-05T06:16:11.524Z,14.98
2023-03-05T06:18:38.853Z,13.15
2023-03-05T06:21:09.522Z,13.88
2023-03-05T06:23:37.014Z,16.08
2023-03-05T06:26:06.754Z,18.10
2023-03-05T06:28:35.124Z,13.63
2023-03-05T06:31:31.873Z,13.45
2023-03-05T06:34:03.391Z,14.40
2023-03-05T06:36:31.597Z,12.20
2023-03-05T06:38:59.498Z,14.57
2023-03-05T06:41:29.466Z,15.38
2023-03-05T06:43:57.138Z,16.98
2023-03-05T06:46:27.867Z,17.40
2023-03-05T06:49:00.911Z,15.02
2023-03-05T06:51:31.163Z,15.07
2023-03-05T06:54:11.196Z,15.30
2023-03-05T06:56:41.300Z,9.57
2023-03-05T06:59:09.109Z,13.05
2023-03-05T07:01:36.679Z,14.73
2023-03-05T07:04:05.161Z,13.35
2023-03-05T07:06:34.533Z,15.27
2023-03-05T07:09:02.698Z,15.23
2023-03-05T07:11:30.365Z,14.05
2023-03-05T07:13:57.852Z,11.75
2023-03-05T07:16:27.400Z,13.00
2023-03-05T07:18:56.229Z,8.43
2023-03-05T07:21:29.860Z,13.85
2023-03-05T07:23:59.404Z,13.02
2023-03-05T07:26:27.701Z,10.82
2023-03-05T07:28:55.551Z,10.68
2023-03-05T07:31:27.575Z,13.43
2023-03-05T07:33:55.027Z,13.65
2023-03-05T07:36:22.224Z,12.35
2023-03-05T07:38:49.521Z,11.05
2023-03-05T07:41:19.989Z,8.43
2023-03-05T07:43:49.575Z,9.80
2023-03-05T07:46:19.134Z,12.88
2023-03-05T07:48:46.630Z,13.68
2023-03-05T07:51:17.158Z,10.95
2023-03-05T07:53:45.753Z,8.98
2023-03-05T07:56:13.779Z,8.18
2023-03-05T07:58:41.069Z,12.15
2023-03-05T08:01:16.269Z,14.60
2023-03-05T08:03:44.649Z,18.35
2023-03-05T08:06:13.007Z,20.20
2023-03-05T08:08:40.481Z,18.23
2023-03-05T08:11:10.510Z,16.75
2023-03-05T08:13:38.625Z,13.77
2023-03-05T08:16:08.310Z,14.35
2023-03-05T08:18:36.463Z,11.48
2023-03-05T08:21:04.695Z,18.23
2023-03-05T08:23:34.621Z,12.02
2023-03-05T08:26:01.862Z,20.60
2023-03-05T08:28:29.157Z,13.48
2023-03-05T08:30:56.626Z,13.18
2023-03-05T08:33:24.039Z,20.05
2023-03-05T08:35:51.365Z,11.68
2023-03-05T08:38:20.997Z,20.90
2023-03-05T08:40:48.775Z,18.80
2023-03-05T08:43:17.645Z,18.38
2023-03-05T08:45:45.354Z,15.25
2023-03-05T08:48:13.275Z,16.27
2023-03-05T08:50:41.190Z,20.45
2023-03-05T08:53:08.697Z,19.70
2023-03-05T08:55:36.826Z,24.95
2023-03-05T08:58:04.764Z,16.92
2023-03-05T09:00:34.802Z,25.05
2023-03-05T09:03:02.083Z,19.63
2023-03-05T09:05:29.655Z,20.30
2023-03-05T09:07:58.745Z,20.33
2023-03-05T09:10:26.012Z,24.58
2023-03-05T09:12:53.296Z,22.65
2023-03-05T09:15:20.581Z,23.13
2023-03-05T09:17:48.068Z,20.20
2023-03-05T09:20:15.919Z,21.17
2023-03-05T09:22:43.360Z,24.75
2023-03-05T09:25:12.405Z,20.27
2023-03-05T09:27:40.189Z,20.85
2023-03-05T09:30:08.153Z,24.17
2023-03-05T09:32:35.684Z,30.10
2023-03-05T09:35:03.527Z,25.88
2023-03-05T09:37:30.997Z,22.55
2023-03-05T09:39:59.351Z,19.80
2023-03-05T09:42:50.782Z,25.98
2023-03-05T09:45:41.216Z,21.63
2023-03-05T09:48:11.295Z,29.05
2023-03-05T09:50:46.491Z,32.80
2023-03-05T09:53:43.952Z,26.42
2023-03-05T09:56:15.577Z,27.83
2023-03-05T09:58:46.945Z,25.80
2023-03-05T10:01:23.573Z,30.23
2023-03-05T10:04:01.888Z,28.13
2023-03-05T10:06:37.861Z,23.58
2023-03-05T10:09:31.215Z,34.05
2023-03-05T10:12:21.141Z,28.95
2023-03-05T10:14:49.219Z,40.72
2023-03-05T10:17:25.600Z,28.08
2023-03-05T10:20:03.056Z,28.52
2023-03-05T10:23:04.709Z,36.17
2023-03-05T10:26:03.885Z,32.67
2023-03-05T10:28:35.981Z,30.92
2023-03-05T10:31:08.781Z,32.75
2023-03-05T10:33:59.100Z,31.48
2023-03-05T10:36:41.685Z,33.42
2023-03-05T10:39:21.238Z,25.10
2023-03-05T10:41:57.037Z,32.95
2023-03-05T10:44:50.034Z,29.35
2023-03-05T10:47:23.332Z,35.67
2023-03-05T10:49:53.174Z,29.50
2023-03-05T10:52:36.807Z,28.83
2023-03-05T10:55:18.736Z,27.02
2023-03-05T10:57:46.107Z,30.75
2023-03-05T11:00:28.132Z,29.15
2023-03-05T11:03:15.608Z,27.17
2023-03-05T11:05:47.141Z,36.28
2023-03-05T11:08:31.658Z,23.73
2023-03-05T11:11:13.112Z,27.55
2023-03-05T11:14:02.499Z,32.08
2023-03-05T11:16:32.889Z,27.38
2023-03-05T11:19:15.478Z,29.33
2023-03-05T11:21:44.637Z,37.33
2023-03-05T11:24:19.669Z,34.92
2023-03-05T11:26:58.314Z,35.17
2023-03-05T11:29:32.382Z,32.70
2023-03-05T11:32:23.155Z,29.70
2023-03-05T11:34:51.316Z,30.55
2023-03-05T11:37:36.964Z,37.50
2023-03-05T11:40:22.730Z,33.75
2023-03-05T11:42:56.024Z,35.17
2023-03-05T11:45:25.213Z,33.40
2023-03-05T11:48:00.600Z,26.00
2023-03-05T11:50:33.645Z,33.63
2023-03-05T11:53:07.800Z,40.22
2023-03-05T11:56:00.035Z,35.95
2023-03-05T11:58:41.098Z,38.72
2023-03-05T12:01:23.894Z,41.00
2023-03-05T12:03:52.767Z,41.13
2023-03-05T12:06:36.615Z,44.13
2023-03-05T12:09:13.644Z,43.42
2023-03-05T12:11:41.381Z,40.67
2023-03-05T12:14:17.851Z,45.20
2023-03-05T12:17:10.048Z,42.65
2023-03-05T12:19:52.262Z,38.47
2023-03-05T12:22:22.948Z,29.48
2023-03-05T12:24:51.269Z,35.30
2023-03-05T12:27:40.182Z,37.95
2023-03-05T12:30:50.281Z,44.63
2023-03-05T12:33:34.210Z,36.97
2023-03-05T12:36:23.359Z,39.90
2023-03-05T12:38:57.732Z,33.72
2023-03-05T12:44:20.967Z,32.45
2023-03-05T12:47:17.896Z,34.65
2023-03-05T12:49:47.225Z,33.60
2023-03-05T12:52:26.691Z,30.50
2023-03-05T12:55:21.197Z,28.52
2023-03-05T12:57:53.760Z,29.45
2023-03-05T13:00:45.068Z,33.22
2023-03-05T13:03:23.730Z,25.95
2023-03-05T13:05:53.947Z,34.58
2023-03-05T13:08:24.069Z,24.58
2023-03-05T13:11:18.228Z,31.02
2023-03-05T13:13:47.841Z,23.55
2023-03-05T13:16:38.910Z,25.88
2023-03-05T13:19:16.621Z,23.17
2023-03-05T13:21:44.336Z,29.40
2023-03-05T13:24:20.056Z,27.08
2023-03-05T13:26:47.571Z,27.17
2023-03-05T13:29:17.855Z,26.08
2023-03-05T13:31:52.430Z,26.85
2023-03-05T13:34:32.016Z,25.60
2023-03-05T13:37:05.654Z,23.23
2023-03-05T13:39:47.555Z,19.60
2023-03-05T13:42:28.766Z,17.70
2023-03-05T13:44:58.738Z,20.63
2023-03-05T13:47:28.796Z,22.80
2023-03-05T13:50:01.497Z,17.65
2023-03-05T13:52:34.009Z,20.63
2023-03-05T13:55:02.329Z,17.95
2023-03-05T13:57:38.691Z,15.80
2023-03-05T14:00:25.819Z,20.85
2023-03-05T14:02:55.037Z,17.23
2023-03-05T14:05:23.021Z,16.50
2023-03-05T14:07:51.886Z,17.77
2023-03-05T14:10:35.693Z,24.95
2023-03-05T14:13:11.492Z,23.13
2023-03-05T14:15:39.909Z,17.00
2023-03-05T14:18:13.308Z,14.60
2023-03-05T14:21:01.563Z,15.35
2023-03-05T14:23:37.081Z,12.32
2023-03-05T14:26:37.769Z,13.27
2023-03-05T14:29:11.572Z,14.52
2023-03-05T14:32:19.128Z,17.30
2023-03-05T14:34:58.631Z,17.17
2023-03-05T14:37:35.891Z,16.10
2023-03-05T14:40:19.631Z,15.20
2023-03-05T14:42:56.641Z,14.25
2023-03-05T14:45:37.491Z,19.92
2023-03-05T14:48:07.622Z,14.88
2023-03-05T14:50:39.298Z,18.60
2023-03-05T14:53:16.622Z,19.63
2023-03-05T14:55:48.925Z,17.70
2023-03-05T14:58:21.989Z,15.38
2023-03-05T15:00:51.285Z,16.38
2023-03-05T15:03:20.884Z,19.00
2023-03-05T15:05:51.506Z,13.52
2023-03-05T15:08:23.383Z,13.52
2023-03-05T15:10:51.684Z,20.38
2023-03-05T15:13:22.120Z,15.07
2023-03-05T15:15:51.473Z,17.75
2023-03-05T15:18:20.748Z,15.48
2023-03-05T15:20:49.334Z,16.38
2023-03-05T15:23:16.774Z,17.63
2023-03-05T15:25:44.151Z,15.65
2023-03-05T15:28:11.667Z,15.23
2023-03-05T15:30:46.367Z,14.02
2023-03-05T15:33:16.674Z,19.00
2023-03-05T15:35:44.469Z,15.55
2023-03-05T15:38:12.156Z,17.38
2023-03-05T15:40:39.560Z,14.48
2023-03-05T15:43:07.118Z,19.42
2023-03-05T15:45:34.582Z,12.82
2023-03-05T15:48:02.104Z,16.05
2023-03-05T15:50:29.517Z,15.23
2023-03-05T15:52:58.271Z,14.23
2023-03-05T15:55:26.283Z,13.55
2023-03-05T15:57:54.599Z,8.70
2023-03-05T16:00:32.598Z,12.00
2023-03-05T16:03:00.096Z,12.15
2023-03-05T16:05:27.884Z,18.20
2023-03-05T16:07:57.382Z,19.73
2023-03-05T16:10:27.268Z,14.10
2023-03-05T16:13:09.788Z,11.43
2023-03-05T16:15:40.768Z,17.02
2023-03-05T16:18:14.732Z,14.35
2023-03-05T16:20:44.270Z,14.60
2023-03-05T16:23:12.080Z,15.48
2023-03-05T16:25:39.937Z,15.23
2023-03-05T16:28:07.792Z,13.60
2023-03-05T16:30:35.805Z,17.92
2023-03-05T16:33:04.678Z,17.73
2023-03-05T16:35:33.190Z,13.93
2023-03-05T16:38:01.539Z,13.80
2023-03-05T16:40:51.406Z,12.90
2023-03-05T16:43:19.163Z,10.63
2023-03-05T16:45:47.119Z,9.98
2023-03-05T16:48:15.092Z,15.93
2023-03-05T16:50:42.775Z,16.92
2023-03-05T16:53:10.990Z,14.13
2023-03-05T16:55:39.661Z,13.98
2023-03-05T16:58:07.384Z,10.88
2023-03-05T17:00:36.698Z,9.02
2023-03-05T17:03:04.941Z,12.90
2023-03-05T17:05:35.230Z,9.25
2023-03-05T17:08:04.335Z,12.20
2023-03-05T17:10:32.127Z,10.85
2023-03-05T17:13:00.987Z,9.60
2023-03-05T17:15:28.519Z,11.07
2023-03-05T17:17:55.780Z,12.77
2023-03-05T17:20:23.235Z,7.35
2023-03-05T17:22:50.506Z,6.35
2023-03-05T17:25:18.467Z,11.57
2023-03-05T17:27:45.895Z,6.68
2023-03-05T17:30:14.929Z,14.55
2023-03-05T17:32:43.875Z,9.38
2023-03-05T17:35:19.260Z,10.63
2023-03-05T17:37:48.132Z,9.50
2023-03-05T17:40:16.415Z,9.75
2023-03-05T17:42:43.875Z,6.13
2023-03-05T17:45:11.908Z,9.07
2023-03-05T17:47:39.271Z,7.78
2023-03-05T17:50:08.160Z,7.40
2023-03-05T17:52:39.564Z,6.28
2023-03-05T17:55:10.286Z,8.02
2023-03-05T17:57:41.699Z,7.90
2023-03-05T18:00:14.836Z,5.68
2023-03-05T18:02:42.247Z,5.63
2023-03-05T18:05:11.498Z,5.47
2023-03-05T18:07:39.188Z,6.30
2023-03-05T18:10:08.210Z,5.07
2023-03-05T18:12:36.335Z,9.93
2023-03-05T18:15:07.167Z,7.90
2023-03-05T18:17:34.778Z,6.95
2023-03-05T18:20:04.106Z,5.50
2023-03-05T18:22:31.949Z,10.73
2023-03-05T18:24:59.514Z,6.20
2023-03-05T18:27:27.198Z,7.35
2023-03-05T18:29:54.706Z,12.93
2023-03-05T18:32:24.422Z,6.88
2023-03-05T18:34:52.006Z,6.45
2023-03-05T18:37:19.335Z,7.00
2023-03-05T18:39:46.727Z,4.70
2023-03-05T18:42:15.036Z,12.10
2023-03-05T18:44:43.205Z,7.55
2023-03-05T18:47:12.596Z,4.68
2023-03-05T18:49:40.270Z,4.78
2023-03-05T18:52:07.526Z,6.03
2023-03-05T18:54:34.866Z,5.43
2023-03-05T18:57:02.152Z,5.60
2023-03-05T18:59:30.315Z,5.60
2023-03-05T19:01:57.625Z,6.03
2023-03-05T19:04:24.957Z,9.27
2023-03-05T19:06:52.184Z,8.07
2023-03-05T19:09:29.044Z,9.02
2023-03-05T19:11:56.391Z,7.55
2023-03-05T19:14:23.903Z,4.15
2023-03-05T19:16:51.170Z,5.13
2023-03-05T19:19:25.559Z,6.63
2023-03-05T19:21:59.852Z,3.47
2023-03-05T19:24:31.620Z,4.10
2023-03-05T19:27:01.221Z,6.20
2023-03-05T19:29:33.193Z,9.50
2023-03-05T19:32:00.729Z,4.97
2023-03-05T19:34:28.104Z,10.65
2023-03-05T19:36:55.485Z,5.25
2023-03-05T19:39:22.943Z,5.55
2023-03-05T19:41:50.268Z,8.02
2023-03-05T19:44:19.416Z,8.23
2023-03-05T19:46:48.662Z,5.75
2023-03-05T19:49:18.364Z,9.60
2023-03-05T19:51:46.575Z,9.40
2023-03-05T19:54:16.143Z,11.35
2023-03-05T19:56:44.971Z,6.80
2023-03-05T19:59:16.496Z,9.18
2023-03-05T20:01:45.900Z,6.45
2023-03-05T20:04:15.947Z,11.43
2023-03-05T20:06:43.626Z,5.22
2023-03-05T20:09:11.976Z,7.18
2023-03-05T20:11:40.360Z,9.05
2023-03-05T20:14:09.342Z,6.45
2023-03-05T20:16:44.871Z,7.82
2023-03-05T20:19:20.132Z,7.38
2023-03-05T20:21:47.553Z,9.45
2023-03-05T20:24:17.197Z,7.82
2023-03-05T20:26:45.947Z,8.07
2023-03-05T20:29:17.504Z,7.13
2023-03-05T20:31:45.990Z,9.27
2023-03-05T20:34:16.770Z,10.77
2023-03-05T20:36:44.642Z,13.50
2023-03-05T20:39:12.136Z,9.18
2023-03-05T20:41:40.243Z,6.90
2023-03-05T20:44:08.608Z,7.70
2023-03-05T20:46:40.100Z,8.68
2023-03-05T20:49:07.564Z,6.40
2023-03-05T20:51:37.903Z,6.45
2023-03-05T20:54:08.798Z,14.20
2023-03-05T20:56:37.757Z,11.38
2023-03-05T20:59:08.948Z,7.93
2023-03-05T21:01:40.571Z,12.52
2023-03-05T21:04:08.960Z,8.93
2023-03-05T21:06:37.105Z,9.90
2023-03-05T21:09:04.835Z,9.32
2023-03-05T21:11:32.400Z,6.10
2023-03-05T21:13:59.871Z,8.90
2023-03-05T21:16:28.341Z,10.20
2023-03-05T21:18:57.324Z,9.57
2023-03-05T21:21:25.462Z,9.43
2023-03-05T21:23:53.577Z,9.15
2023-03-05T21:26:23.404Z,13.15
2023-03-05T21:28:51.107Z,8.07
2023-03-05T21:31:21.488Z,7.65
2023-03-05T21:33:49.392Z,8.13
2023-03-05T21:36:18.870Z,13.05
2023-03-05T21:38:50.106Z,8.07
2023-03-05T21:41:18.308Z,8.82
2023-03-05T21:43:45.713Z,6.95
2023-03-05T21:46:13.361Z,7.57
2023-03-05T21:48:40.909Z,8.10
2023-03-05T21:51:08.955Z,9.95
2023-03-05T21:53:36.613Z,6.80
2023-03-05T21:56:22.732Z,9.20
2023-03-05T21:58:50.377Z,7.75
2023-03-05T22:01:19.532Z,9.55
2023-03-05T22:03:48.325Z,10.35
2023-03-05T22:06:17.278Z,11.27
2023-03-05T22:08:44.945Z,9.32
2023-03-05T22:11:14.617Z,8.13
2023-03-05T22:13:43.078Z,7.78
2023-03-05T22:16:10.976Z,5.82
2023-03-05T22:18:38.463Z,8.05
2023-03-05T22:21:14.306Z,11.63
2023-03-05T22:23:41.719Z,8.23
2023-03-05T22:26:09.234Z,7.47
2023-03-05T22:28:39.021Z,6.25
2023-03-05T22:31:06.564Z,8.27
2023-03-05T22:33:34.679Z,9.32
2023-03-05T22:36:09.312Z,9.23
2023-03-05T22:38:36.954Z,11.05
2023-03-05T22:41:09.029Z,8.40
2023-03-05T22:43:36.906Z,13.75
2023-03-05T22:46:18.991Z,13.25
2023-03-05T22:48:47.016Z,8.18
2023-03-05T22:51:16.102Z,6.72
2023-03-05T22:53:44.120Z,5.18
2023-03-05T22:56:14.855Z,8.75
2023-03-05T22:58:42.880Z,7.82
2023-03-05T23:01:14.474Z,7.13
2023-03-05T23:03:42.878Z,11.15
2023-03-05T23:06:10.839Z,8.05
2023-03-05T23:08:38.567Z,5.05
2023-03-05T23:11:13.320Z,6.93
2023-03-05T23:13:41.569Z,7.88
2023-03-05T23:16:09.813Z,12.63
2023-03-05T23:18:37.363Z,9.13
2023-03-05T23:21:04.796Z,9.10
2023-03-05T23:23:32.223Z,13.57
2023-03-05T23:25:59.836Z,9.70
2023-03-05T23:28:27.222Z,7.50
2023-03-05T23:30:54.743Z,7.32
2023-03-05T23:33:24.011Z,9.75
2023-03-05T23:35:52.918Z,5.18
2023-03-05T23:38:21.076Z,7.55
2023-03-05T23:40:50.992Z,7.95
2023-03-05T23:43:19.083Z,9.43
2023-03-05T23:45:48.811Z,12.20
2023-03-05T23:48:17.758Z,6.55
2023-03-05T23:50:47.842Z,8.05
2023-03-05T23:53:20.981Z,8.63
2023-03-05T23:55:49.187Z,12.82
2023-03-05T23:58:19.191Z,10.52
